Time;durP1;ratioP1;P1;durP2;ratioP2;P2;SDS_P1;SDS_P2;PMS_P1;PMS_P2;Temp;Humidity;BMP_temperature;BMP_pressure;BME280_temperature;BME280_humidity;BME280_pressure;Samples;Min_cycle;Max_cycle;Signal;HPM_P1;HPM_P2
2022/06/07 00:00:32;;;;;;;6.90;2.77;;;;;;;22.21;100.00;101432.31;2073934;28;20200;-67
2022/06/07 00:01:33;;;;;;;6.30;2.60;;;;;;;21.59;100.00;101394.47;2074248;28;20190;-66
2022/06/07 00:02:35;;;;;;;3.73;2.60;;;;;;;22.02;100.00;101435.91;2074084;28;20182;-67
2022/06/07 00:03:36;;;;;;;5.70;2.90;;;;;;;21.96;100.00;101444.28;2074083;28;20610;-67
2022/06/07 00:04:38;;;;;;;4.03;2.60;;;;;;;21.78;100.00;101421.97;2074020;28;20178;-67
2022/06/07 00:05:41;;;;;;;4.37;2.50;;;;;;;22.00;100.00;101439.22;2074004;28;20285;-67
2022/06/07 00:06:41;;;;;;;6.10;2.90;;;;;;;22.04;100.00;101442.63;2065409;28;20178;-67
2022/06/07 00:07:42;;;;;;;5.73;2.73;;;;;;;22.05;100.00;101440.56;2065406;28;20184;-67
2022/06/07 00:08:42;;;;;;;4.03;2.80;;;;;;;21.88;100.00;101412.13;2073973;28;20724;-66
2022/06/07 00:09:43;;;;;;;4.90;2.43;;;;;;;22.10;100.00;101432.16;2065285;28;20190;-67
2022/06/07 00:10:47;;;;;;;2.60;2.40;;;;;;;22.04;100.00;101410.78;2065362;28;20649;-67
2022/06/07 00:11:48;;;;;;;3.33;2.37;;;;;;;22.16;100.00;101430.19;2073961;28;20174;-67
2022/06/07 00:12:49;;;;;;;7.43;2.70;;;;;;;22.17;100.00;101426.13;2073792;28;20658;-67
2022/06/07 00:13:49;;;;;;;3.67;2.60;;;;;;;22.13;100.00;101410.66;2073957;28;20154;-67
2022/06/07 00:14:50;;;;;;;3.70;2.43;;;;;;;22.25;100.00;101423.63;2073942;28;20623;-67
2022/06/07 00:15:51;;;;;;;5.57;2.90;;;;;;;22.24;100.00;101417.22;2073964;28;20678;-68
2022/06/07 00:16:53;;;;;;;3.43;2.30;;;;;;;22.27;100.00;101421.88;2073930;28;20186;-67
2022/06/07 00:17:54;;;;;;;4.50;2.30;;;;;;;22.33;100.00;101421.94;2065047;28;20213;-67
2022/06/07 00:18:54;;;;;;;4.53;2.47;;;;;;;22.35;100.00;101414.53;2065154;28;20240;-67
2022/06/07 00:19:54;;;;;;;3.13;2.40;;;;;;;22.35;100.00;101411.72;2073918;28;20182;-67
2022/06/07 00:20:55;;;;;;;4.03;2.50;;;;;;;22.20;100.00;101391.25;2073828;28;20229;-67
2022/06/07 00:21:55;;;;;;;4.70;2.80;;;;;;;22.32;100.00;101415.50;2073857;28;20660;-67
2022/06/07 00:22:58;;;;;;;3.07;2.30;;;;;;;22.35;100.00;101410.94;2073774;28;20206;-67
2022/06/07 00:24:02;;;;;;;5.73;2.50;;;;;;;22.39;100.00;101417.16;2073882;28;20170;-67
2022/06/07 00:25:05;;;;;;;3.23;2.50;;;;;;;22.33;100.00;101414.25;2073864;28;20177;-67
2022/06/07 00:26:05;;;;;;;5.47;2.40;;;;;;;22.35;100.00;101406.06;2073790;28;20710;-67
2022/06/07 00:27:06;;;;;;;3.83;2.13;;;;;;;22.13;100.00;101393.72;2073817;28;20539;-67
2022/06/07 00:28:07;;;;;;;2.83;2.20;;;;;;;22.27;100.00;101409.81;2073863;28;20566;-67
2022/06/07 00:29:08;;;;;;;4.77;2.27;;;;;;;21.17;100.00;101273.59;2073383;28;20644;-68
2022/06/07 00:30:11;;;;;;;3.17;2.33;;;;;;;22.12;100.00;101398.59;2074006;28;20178;-68
2022/06/07 00:31:11;;;;;;;4.30;2.67;;;;;;;22.16;100.00;101413.25;2073766;28;20643;-67
2022/06/07 00:32:16;;;;;;;4.40;2.67;;;;;;;22.20;100.00;101413.03;2073860;28;20621;-67
2022/06/07 00:33:16;;;;;;;5.47;2.30;;;;;;;22.15;100.00;101408.13;2073795;28;20197;-67
2022/06/07 00:34:17;;;;;;;4.20;2.70;;;;;;;22.07;100.00;101410.59;2073790;28;20648;-67
2022/06/07 00:35:18;;;;;;;4.60;2.90;;;;;;;22.08;100.00;101402.88;2065012;28;20175;-67
2022/06/07 00:36:18;;;;;;;5.20;2.50;;;;;;;22.08;100.00;101409.31;2065082;28;20226;-67
2022/06/07 00:37:19;;;;;;;5.00;2.90;;;;;;;21.91;100.00;101404.72;2073758;28;20213;-67
2022/06/07 00:38:19;;;;;;;5.60;2.70;;;;;;;21.85;100.00;101393.34;2073711;28;20178;-67
2022/06/07 00:39:20;;;;;;;3.33;2.57;;;;;;;21.90;100.00;101418.03;2073743;28;20264;-67
2022/06/07 00:40:20;;;;;;;3.00;2.70;;;;;;;21.89;100.00;101412.88;2073753;28;20185;-67
2022/06/07 00:41:21;;;;;;;4.33;2.70;;;;;;;21.83;100.00;101409.19;2073662;28;20293;-67
2022/06/07 00:42:21;;;;;;;4.20;2.70;;;;;;;21.76;100.00;101421.69;2073716;28;20265;-66
2022/06/07 00:43:25;;;;;;;4.40;2.60;;;;;;;21.72;100.00;101418.28;2073757;28;20189;-67
2022/06/07 00:44:25;;;;;;;3.17;2.83;;;;;;;21.77;100.00;101422.44;2073642;28;20631;-67
2022/06/07 00:45:26;;;;;;;4.97;2.80;;;;;;;21.65;100.00;101432.75;2073726;28;20788;-67
2022/06/07 00:46:27;;;;;;;3.20;2.90;;;;;;;20.87;100.00;101325.59;2073660;28;20665;-67
2022/06/07 00:47:29;;;;;;;3.87;2.90;;;;;;;21.60;100.00;101429.84;2073571;28;20177;-67
2022/06/07 00:48:30;;;;;;;3.03;2.73;;;;;;;21.65;100.00;101437.63;2073607;28;20170;-67
2022/06/07 00:49:51;;;;;;;6.27;2.90;;;;;;;21.52;100.00;101429.47;2073747;28;20185;-67
2022/06/07 00:50:58;;;;;;;3.30;2.80;;;;;;;21.70;100.00;101434.91;2073695;28;20162;-67
2022/06/07 00:51:58;;;;;;;7.93;3.30;;;;;;;21.70;100.00;101439.78;2073723;28;20482;-67
2022/06/07 00:52:59;;;;;;;5.83;3.17;;;;;;;21.73;100.00;101439.59;2073665;28;20511;-67
2022/06/07 00:54:00;;;;;;;6.07;2.73;;;;;;;21.82;100.00;101442.28;2073715;28;20208;-67
2022/06/07 00:55:03;;;;;;;5.73;3.27;;;;;;;21.82;100.00;101427.41;2073666;28;20610;-67
2022/06/07 00:56:05;;;;;;;5.47;2.90;;;;;;;21.95;100.00;101431.44;2073587;28;20186;-67
2022/06/07 00:57:07;;;;;;;4.57;2.67;;;;;;;21.99;100.00;101436.88;2073573;28;20424;-67
2022/06/07 00:58:07;;;;;;;4.90;2.50;;;;;;;21.30;100.00;101322.00;2073608;28;20178;-67
2022/06/07 00:59:07;;;;;;;6.30;2.40;;;;;;;22.03;100.00;101424.13;2073679;28;20173;-67
2022/06/07 01:00:11;;;;;;;4.90;2.70;;;;;;;22.06;100.00;101422.38;2073623;28;20182;-68
2022/06/07 01:01:12;;;;;;;6.83;2.57;;;;;;;22.15;100.00;101430.72;2073490;28;20232;-66
2022/06/07 01:02:13;;;;;;;7.90;2.50;;;;;;;22.13;100.00;101433.22;2064782;28;20182;-67
2022/06/07 01:03:14;;;;;;;6.27;2.70;;;;;;;21.56;100.00;101347.47;2065020;28;20273;-67
2022/06/07 01:04:14;;;;;;;5.33;2.80;;;;;;;21.75;100.00;101379.84;2073639;28;20185;-67
2022/06/07 01:05:14;;;;;;;3.30;2.60;;;;;;;22.09;100.00;101432.66;2073640;28;20178;-67
2022/06/07 01:11:35;;;;;;;5.77;2.40;;;;;;;22.21;100.00;101431.56;2073659;28;20169;-67
2022/06/07 01:12:36;;;;;;;5.30;2.43;;;;;;;22.27;100.00;101438.06;2073437;28;20177;-67
2022/06/07 01:13:36;;;;;;;3.83;2.37;;;;;;;22.29;100.00;101435.50;2073512;28;20185;-66
2022/06/07 01:14:37;;;;;;;4.27;2.40;;;;;;;22.31;100.00;101436.56;2073468;28;20173;-67
2022/06/07 01:15:38;;;;;;;5.57;2.47;;;;;;;22.34;100.00;101438.41;2073537;28;20181;-67
2022/06/07 01:16:38;;;;;;;8.00;2.73;;;;;;;22.34;100.00;101434.78;2073423;28;20431;-67
2022/06/07 01:17:39;;;;;;;7.33;2.23;;;;;;;22.36;100.00;101429.44;2073520;28;20186;-67
2022/06/07 01:18:39;;;;;;;7.73;2.60;;;;;;;22.26;100.00;101416.75;2073408;28;20182;-67
2022/06/07 01:19:40;;;;;;;4.17;2.37;;;;;;;22.35;100.00;101434.31;2073530;28;20188;-67
2022/06/07 01:20:41;;;;;;;7.57;2.47;;;;;;;21.89;100.00;101371.34;2073373;28;20269;-67
2022/06/07 01:21:41;;;;;;;5.60;2.40;;;;;;;22.36;100.00;101427.38;2073507;28;20186;-67
2022/06/07 01:22:42;;;;;;;7.63;2.80;;;;;;;22.36;100.00;101435.09;2073465;28;20177;-67
2022/06/07 01:23:44;;;;;;;4.60;2.30;;;;;;;22.39;100.00;101431.25;2073463;28;20185;-67
2022/06/07 01:24:45;;;;;;;6.03;2.50;;;;;;;22.36;100.00;101435.09;2073529;28;20178;-67
2022/06/07 01:25:46;;;;;;;6.57;2.20;;;;;;;22.33;100.00;101436.06;2073370;28;20913;-67
2022/06/07 01:26:46;;;;;;;3.20;2.30;;;;;;;22.30;100.00;101437.84;2073427;28;20448;-66
2022/06/07 01:27:46;;;;;;;5.20;2.83;;;;;;;22.28;100.00;101440.38;2073459;28;20177;-67
2022/06/07 01:28:47;;;;;;;5.63;2.50;;;;;;;22.26;100.00;101431.63;2064769;28;20182;-67
2022/06/07 01:29:48;;;;;;;5.77;2.77;;;;;;;22.26;100.00;101434.44;2056667;28;20183;-67
2022/06/07 01:30:49;;;;;;;4.90;2.80;;;;;;;22.26;100.00;101440.09;2064772;28;20233;-67
2022/06/07 01:31:49;;;;;;;4.03;2.30;;;;;;;22.11;100.00;101418.84;2073356;28;20471;-67
2022/06/07 01:32:49;;;;;;;5.13;2.50;;;;;;;22.19;100.00;101419.97;2073335;28;20569;-67
2022/06/07 01:33:50;;;;;;;4.07;2.50;;;;;;;22.22;100.00;101435.94;2073373;28;20717;-67
2022/06/07 01:34:50;;;;;;;4.90;2.30;;;;;;;22.04;100.00;101414.38;2073456;28;20178;-67
2022/06/07 01:36:01;;;;;;;4.13;2.40;;;;;;;22.11;100.00;101430.13;2073326;28;20308;-67
2022/06/07 01:37:02;;;;;;;7.03;2.63;;;;;;;21.72;100.00;101369.53;2073367;28;20178;-67
2022/06/07 01:38:02;;;;;;;4.93;2.53;;;;;;;22.11;100.00;101425.25;2073344;28;20420;-67
2022/06/07 01:41:56;;;;;;;5.07;2.90;;;;;;;21.93;100.00;101434.00;2073410;28;20408;-67
2022/06/07 01:42:56;;;;;;;7.43;2.53;;;;;;;21.80;100.00;101422.25;2073461;28;20459;-67
2022/06/07 01:43:59;;;;;;;4.27;2.90;;;;;;;21.80;100.00;101424.31;2073351;28;20416;-68
2022/06/07 01:44:59;;;;;;;3.17;2.77;;;;;;;21.67;100.00;101427.41;2073277;28;20186;-67
2022/06/07 01:46:06;;;;;;;4.87;3.07;;;;;;;20.84;100.00;101325.78;2073383;28;20914;-67
2022/06/07 01:47:10;;;;;;;6.27;2.93;;;;;;;21.47;100.00;101423.75;2073367;28;20236;-67
2022/06/07 01:48:10;;;;;;;4.67;2.83;;;;;;;21.39;100.00;101423.34;2073196;28;20425;-67
2022/06/07 01:49:11;;;;;;;4.57;3.40;;;;;;;21.31;100.00;101427.84;2073361;28;20424;-67
2022/06/07 01:50:11;;;;;;;6.83;2.93;;;;;;;21.30;100.00;101431.16;2073321;28;20631;-66
2022/06/07 01:51:13;;;;;;;5.30;3.20;;;;;;;21.15;100.00;101430.38;2073381;28;20221;-68
2022/06/07 01:52:15;;;;;;;7.10;3.00;;;;;;;20.95;100.00;101402.88;2073447;28;20214;-67
2022/06/07 01:53:16;;;;;;;4.33;3.20;;;;;;;21.01;100.00;101406.56;2064531;28;20429;-67
2022/06/07 01:54:17;;;;;;;4.40;2.73;;;;;;;21.18;100.00;101446.31;2064593;28;20417;-67
2022/06/07 01:55:17;;;;;;;4.93;3.10;;;;;;;21.20;100.00;101427.66;2073225;28;20212;-67
2022/06/07 01:56:18;;;;;;;3.40;2.83;;;;;;;21.26;100.00;101422.91;2073238;28;20245;-67
2022/06/07 01:57:20;;;;;;;3.77;2.87;;;;;;;21.31;100.00;101425.03;2073270;28;20174;-67
2022/06/07 01:58:21;;;;;;;5.33;2.90;;;;;;;21.37;100.00;101420.25;2064376;28;20178;-68
2022/06/07 01:59:21;;;;;;;3.23;2.70;;;;;;;21.41;100.00;101423.66;2064571;28;20975;-67
2022/06/07 02:00:22;;;;;;;4.33;2.90;;;;;;;21.44;100.00;101421.91;2073316;28;20169;-67
2022/06/07 02:01:22;;;;;;;4.50;2.80;;;;;;;21.49;100.00;101424.81;2073342;28;20208;-67
2022/06/07 02:02:24;;;;;;;4.77;2.70;;;;;;;21.49;100.00;101418.41;2073291;28;20743;-67
2022/06/07 02:03:25;;;;;;;4.63;2.73;;;;;;;20.84;100.00;101320.94;2073246;28;20209;-67
2022/06/07 02:04:26;;;;;;;3.87;2.60;;;;;;;21.54;100.00;101434.63;2073280;28;20416;-67
2022/06/07 02:05:27;;;;;;;4.50;2.70;;;;;;;21.55;100.00;101422.09;2073274;28;20261;-67
2022/06/07 02:06:27;;;;;;;3.57;2.40;;;;;;;21.58;100.00;101416.25;2073216;28;20420;-67
2022/06/07 02:07:28;;;;;;;6.70;2.70;;;;;;;21.47;100.00;101404.78;2073291;28;20539;-67
2022/06/07 02:08:29;;;;;;;3.90;2.80;;;;;;;20.90;100.00;101316.22;2073278;28;20174;-67
2022/06/07 02:09:30;;;;;;;4.33;2.87;;;;;;;21.01;100.00;101333.31;2073274;28;20185;-67
2022/06/07 02:10:30;;;;;;;5.57;3.13;;;;;;;21.43;100.00;101401.38;2073235;28;20416;-67
2022/06/07 02:11:32;;;;;;;12.57;3.50;;;;;;;21.43;100.00;101426.75;2073205;28;20239;-67
2022/06/07 02:12:32;;;;;;;9.47;3.50;;;;;;;21.35;100.00;101419.19;2073209;28;20182;-67
2022/06/07 02:13:33;;;;;;;11.83;3.30;;;;;;;21.37;100.00;101433.56;2073245;28;20675;-67
2022/06/07 02:14:33;;;;;;;9.30;3.67;;;;;;;20.85;100.00;101378.84;2073220;28;20188;-67
2022/06/07 02:15:34;;;;;;;8.53;3.23;;;;;;;21.22;100.00;101422.31;2073166;28;20197;-67
2022/06/07 02:16:35;;;;;;;13.37;3.47;;;;;;;21.18;100.00;101446.31;2073170;28;20181;-67
2022/06/07 02:17:36;;;;;;;13.00;3.60;;;;;;;21.22;100.00;101435.63;2073262;28;20181;-68
2022/06/07 02:18:37;;;;;;;8.07;3.23;;;;;;;21.28;100.00;101442.16;2073141;28;20717;-67
2022/06/07 02:19:37;;;;;;;7.67;3.40;;;;;;;21.19;100.00;101419.69;2073248;28;20683;-67
2022/06/07 02:20:38;;;;;;;13.03;3.23;;;;;;;20.54;100.00;101318.59;2073065;28;20660;-67
2022/06/07 02:21:39;;;;;;;5.60;2.83;;;;;;;21.26;100.00;101442.63;2073209;28;20240;-67
2022/06/07 02:22:40;;;;;;;10.03;3.30;;;;;;;21.28;100.00;101442.16;2073218;28;20483;-67
2022/06/07 02:23:41;;;;;;;8.43;3.30;;;;;;;21.17;100.00;101419.38;2064460;28;20186;-67
2022/06/07 02:24:41;;;;;;;9.37;3.47;;;;;;;20.64;100.00;101343.38;2064523;28;20564;-67
2022/06/07 02:25:47;;;;;;;6.03;3.20;;;;;;;21.30;100.00;101445.25;2073144;28;20256;-67
2022/06/07 02:26:54;;;;;;;6.60;3.30;;;;;;;21.29;100.00;101444.47;2073276;28;20197;-67
2022/06/07 02:27:54;;;;;;;4.80;3.10;;;;;;;21.17;100.00;101428.63;2073165;28;20428;-67
2022/06/07 02:29:06;;;;;;;10.03;3.57;;;;;;;21.22;100.00;101444.84;2073150;28;20455;-66
2022/06/07 02:30:08;;;;;;;13.23;4.17;;;;;;;21.02;100.00;101419.38;2073379;28;20197;-67
2022/06/07 02:31:10;;;;;;;15.73;4.23;;;;;;;21.28;100.00;101447.78;2073128;28;20500;-67
2022/06/07 02:32:14;;;;;;;12.90;3.70;;;;;;;21.28;100.00;101457.00;2073168;28;20416;-67
2022/06/07 02:33:15;;;;;;;10.50;2.93;;;;;;;20.49;100.00;101328.50;2073084;28;21009;-67
2022/06/07 02:34:19;;;;;;;10.40;3.00;;;;;;;21.22;100.00;101442.03;2073143;28;20804;-67
2022/06/07 02:35:19;;;;;;;14.23;3.50;;;;;;;21.19;100.00;101447.88;2073233;28;20185;-67
2022/06/07 02:36:20;;;;;;;9.50;3.70;;;;;;;21.16;100.00;101452.44;2073121;28;20423;-67
2022/06/07 02:37:21;;;;;;;10.33;4.13;;;;;;;21.04;100.00;101439.41;2073040;28;20316;-67
2022/06/07 02:38:23;;;;;;;8.23;3.70;;;;;;;21.04;100.00;101444.28;2073147;28;20229;-67
2022/06/07 02:39:24;;;;;;;10.13;4.40;;;;;;;20.92;100.00;101448.13;2073107;28;20428;-67
2022/06/07 02:40:25;;;;;;;6.40;4.20;;;;;;;20.87;100.00;101445.97;2073102;28;20427;-67
2022/06/07 02:41:27;;;;;;;8.50;4.20;;;;;;;20.79;100.00;101448.41;2072993;28;20213;-67
2022/06/07 02:42:29;;;;;;;7.13;4.20;;;;;;;20.75;100.00;101450.63;2073145;28;20178;-67
2022/06/07 02:43:30;;;;;;;14.43;5.10;;;;;;;20.55;100.00;101453.28;2073056;28;20423;-67
2022/06/07 02:44:31;;;;;;;6.63;4.60;;;;;;;20.51;100.00;101430.16;2073021;28;20421;-67
2022/06/07 02:45:31;;;;;;;8.03;4.80;;;;;;;20.52;100.00;101454.22;2073099;28;20432;-67
2022/06/07 02:46:31;;;;;;;8.93;4.83;;;;;;;20.47;100.00;101454.88;2073101;28;20180;-67
2022/06/07 02:47:32;;;;;;;7.33;4.53;;;;;;;20.50;100.00;101458.78;2073162;28;20693;-67
2022/06/07 02:48:32;;;;;;;11.23;4.70;;;;;;;20.47;100.00;101457.72;2073018;28;20354;-67
2022/06/07 02:49:33;;;;;;;9.37;4.70;;;;;;;20.46;100.00;101461.03;2073104;28;20185;-67
2022/06/07 02:50:33;;;;;;;8.83;4.90;;;;;;;20.42;100.00;101458.38;2073093;28;20709;-67
2022/06/07 02:51:34;;;;;;;7.07;4.53;;;;;;;20.45;100.00;101462.25;2073064;28;20188;-67
2022/06/07 02:52:35;;;;;;;6.73;4.80;;;;;;;20.41;100.00;101459.63;2074372;28;20174;-67
2022/06/07 02:53:35;;;;;;;9.27;4.70;;;;;;;20.45;100.00;101468.69;2074563;28;20269;-67
2022/06/07 02:54:37;;;;;;;8.23;4.60;;;;;;;20.50;100.00;101467.22;2065737;28;20186;-67
2022/06/07 02:55:37;;;;;;;10.27;5.40;;;;;;;20.44;100.00;101455.09;2065898;28;20617;-67
2022/06/07 02:56:38;;;;;;;12.07;5.27;;;;;;;20.41;100.00;101458.88;2074560;28;20420;-68
2022/06/07 02:57:38;;;;;;;13.73;5.60;;;;;;;20.19;100.00;101427.41;2074579;28;20177;-67
2022/06/07 02:58:39;;;;;;;14.23;5.10;;;;;;;20.58;100.00;101469.19;2074454;28;20184;-67
2022/06/07 02:59:39;;;;;;;8.50;4.50;;;;;;;20.64;100.00;101474.94;2074498;28;20178;-67
2022/06/07 03:00:40;;;;;;;5.50;4.30;;;;;;;20.67;100.00;101471.19;2074496;28;20186;-67
2022/06/07 03:01:40;;;;;;;6.53;4.10;;;;;;;20.70;100.00;101464.56;2074514;28;20177;-67
2022/06/07 03:02:42;;;;;;;9.37;4.37;;;;;;;20.73;100.00;101480.53;2074453;28;20188;-67
2022/06/07 03:03:42;;;;;;;12.57;4.40;;;;;;;20.68;100.00;101461.47;2065722;28;20188;-67
2022/06/07 03:04:42;;;;;;;17.50;5.17;;;;;;;20.10;100.00;101383.22;2065794;28;20425;-67
2022/06/07 03:05:43;;;;;;;12.33;4.63;;;;;;;20.75;100.00;101472.34;2074591;28;20177;-67
2022/06/07 03:06:44;;;;;;;14.23;4.80;;;;;;;20.77;100.00;101472.66;2074450;28;20243;-67
2022/06/07 03:07:44;;;;;;;11.60;4.63;;;;;;;20.68;100.00;101459.41;2074486;28;20197;-66
2022/06/07 03:08:45;;;;;;;7.77;4.50;;;;;;;20.80;100.00;101466.84;2065783;28;20189;-66
2022/06/07 03:09:45;;;;;;;9.83;4.77;;;;;;;20.88;100.00;101472.88;2065922;28;20236;-67
2022/06/07 03:10:47;;;;;;;10.53;4.83;;;;;;;20.83;100.00;101468.69;2074312;28;20170;-67
2022/06/07 03:11:47;;;;;;;7.77;4.93;;;;;;;20.86;100.00;101469.75;2074481;28;20182;-67
2022/06/07 03:12:48;;;;;;;7.80;4.67;;;;;;;20.87;100.00;101474.16;2074258;28;20957;-67
2022/06/07 03:13:48;;;;;;;10.77;4.70;;;;;;;20.88;100.00;101473.66;2074308;28;20200;-67
2022/06/07 03:14:49;;;;;;;8.47;4.83;;;;;;;20.86;100.00;101466.94;2074446;28;20224;-67
2022/06/07 03:15:52;;;;;;;8.50;4.57;;;;;;;20.86;100.00;101464.13;2074311;28;20177;-67
2022/06/07 03:16:52;;;;;;;8.00;4.60;;;;;;;20.75;100.00;101459.06;2074314;28;20631;-67
2022/06/07 03:17:53;;;;;;;5.43;3.90;;;;;;;20.87;100.00;101474.16;2074317;28;20804;-67
2022/06/07 03:18:53;;;;;;;10.60;4.73;;;;;;;20.81;100.00;101473.25;2074359;28;20184;-67
2022/06/07 03:19:54;;;;;;;6.60;4.43;;;;;;;20.76;100.00;101476.72;2074239;28;20173;-67
2022/06/07 03:20:54;;;;;;;8.60;4.60;;;;;;;20.68;100.00;101470.69;2074218;28;20284;-67
2022/06/07 03:21:55;;;;;;;6.07;4.53;;;;;;;20.63;100.00;101479.78;2074315;28;20173;-67
2022/06/07 03:22:55;;;;;;;6.80;4.50;;;;;;;20.54;100.00;101477.06;2074359;28;20170;-67
2022/06/07 03:23:56;;;;;;;6.27;4.63;;;;;;;20.00;100.00;101398.59;2074236;28;20181;-66
2022/06/07 03:24:56;;;;;;;8.43;5.03;;;;;;;19.86;100.00;101378.84;2074443;28;20301;-66
2022/06/07 03:26:09;;;;;;;8.63;4.60;;;;;;;20.47;100.00;101479.47;2074259;28;20182;-66
2022/06/07 03:27:11;;;;;;;7.23;4.47;;;;;;;20.05;100.00;101414.06;2074353;28;20170;-66
2022/06/07 03:28:11;;;;;;;7.60;4.70;;;;;;;20.46;100.00;101478.69;2074283;28;20412;-66
2022/06/07 03:29:12;;;;;;;9.97;4.73;;;;;;;20.42;100.00;101483.72;2074331;28;20463;-67
2022/06/07 03:30:13;;;;;;;6.53;5.00;;;;;;;20.42;100.00;101468.88;2074276;28;20237;-66
2022/06/07 03:31:16;;;;;;;12.83;4.80;;;;;;;20.55;100.00;101486.28;2065556;28;20196;-66
2022/06/07 03:32:16;;;;;;;10.67;4.87;;;;;;;20.56;100.00;101485.81;2065864;28;20703;-66
2022/06/07 03:33:16;;;;;;;11.57;4.57;;;;;;;20.61;100.00;101481.53;2074187;28;20811;-66
2022/06/07 03:34:17;;;;;;;10.87;4.83;;;;;;;20.66;100.00;101478.84;2074244;28;20181;-66
2022/06/07 03:35:18;;;;;;;7.40;4.70;;;;;;;20.69;100.00;101477.91;2065413;28;20188;-66
2022/06/07 03:36:22;;;;;;;13.57;5.13;;;;;;;20.54;100.00;101448.91;2065541;28;20195;-66
2022/06/07 03:37:22;;;;;;;9.27;4.77;;;;;;;20.77;100.00;101483.94;2074261;28;20565;-67
2022/06/07 03:38:23;;;;;;;10.40;5.37;;;;;;;20.75;100.00;101475.97;2074127;28;20442;-66
2022/06/07 03:39:23;;;;;;;11.23;4.93;;;;;;;20.87;100.00;101488.25;2074331;28;20674;-66
2022/06/07 03:41:43;;;;;;;6.90;4.20;;;;;;;20.95;100.00;101480.97;2074251;28;20627;-66
2022/06/07 03:42:43;;;;;;;13.90;4.53;;;;;;;20.43;100.00;101395.19;2074220;28;20818;-67
2022/06/07 03:43:44;;;;;;;14.27;4.93;;;;;;;20.96;100.00;101479.72;2074178;28;20186;-67
2022/06/07 03:44:48;;;;;;;8.97;4.97;;;;;;;20.91;100.00;101477.56;2074240;28;20178;-66
2022/06/07 03:45:49;;;;;;;11.23;5.10;;;;;;;20.93;100.00;101486.34;2074176;28;20173;-66
2022/06/07 03:46:49;;;;;;;8.07;4.70;;;;;;;20.87;100.00;101483.38;2065340;28;20445;-66
2022/06/07 03:47:50;;;;;;;9.43;4.83;;;;;;;20.91;100.00;101486.81;2065503;28;20189;-66
2022/06/07 03:48:51;;;;;;;9.97;4.70;;;;;;;20.92;100.00;101488.38;2074068;28;20186;-66
2022/06/07 03:49:52;;;;;;;6.93;4.40;;;;;;;20.89;100.00;101492.16;2065554;28;20182;-66
2022/06/07 03:50:53;;;;;;;5.97;4.30;;;;;;;20.83;100.00;101476.38;2065459;28;20421;-66
2022/06/07 03:51:53;;;;;;;10.00;4.77;;;;;;;20.88;100.00;101486.97;2074118;28;20224;-66
2022/06/07 03:52:54;;;;;;;8.83;4.73;;;;;;;20.86;100.00;101490.25;2065381;28;20640;-67
2022/06/07 03:53:56;;;;;;;12.17;4.67;;;;;;;20.85;100.00;101485.09;2065435;28;20174;-66
2022/06/07 03:54:56;;;;;;;10.63;4.77;;;;;;;20.82;100.00;101491.72;2074250;28;20205;-66
2022/06/07 03:55:57;;;;;;;13.63;4.63;;;;;;;20.82;100.00;101484.03;2074009;28;20412;-66
2022/06/07 03:56:57;;;;;;;10.90;4.80;;;;;;;20.93;100.00;101489.16;2074058;28;20651;-66
2022/06/07 03:57:57;;;;;;;17.50;5.30;;;;;;;20.98;100.00;101486.44;2073996;28;20731;-67
2022/06/07 03:58:58;;;;;;;18.13;5.37;;;;;;;20.94;100.00;101477.38;2074128;28;20232;-67
2022/06/07 03:59:58;;;;;;;11.70;5.13;;;;;;;21.10;100.00;101495.88;2073973;28;20556;-66
2022/06/07 04:01:01;;;;;;;9.10;4.23;;;;;;;21.15;100.00;101493.19;2073993;28;20238;-66
2022/06/07 04:02:02;;;;;;;11.00;4.37;;;;;;;20.18;100.00;101338.63;2073950;28;20213;-67
2022/06/07 04:03:02;;;;;;;9.87;4.80;;;;;;;21.08;100.00;101476.63;2074035;28;20412;-67
2022/06/07 04:04:06;;;;;;;5.60;4.33;;;;;;;21.15;100.00;101469.84;2068085;28;20277;-66
2022/06/07 04:05:07;;;;;;;8.30;4.83;;;;;;;21.14;100.00;101459.81;2065842;28;20257;-66
2022/06/07 04:06:19;;;;;;;11.93;5.00;;;;;;;21.26;100.00;101472.84;2064341;28;20429;-67
2022/06/07 04:08:39;;;;;;;8.40;4.63;;;;;;;21.41;100.00;101484.91;2073822;28;20424;-67
2022/06/07 04:09:40;;;;;;;6.10;4.27;;;;;;;21.29;100.00;101460.63;2073934;28;20421;-67
2022/06/07 04:10:57;;;;;;;12.07;4.67;;;;;;;21.49;100.00;101486.84;2073649;28;20178;-67
2022/06/07 04:11:58;;;;;;;9.77;4.67;;;;;;;21.52;100.00;101487.91;2073875;28;20157;-67
2022/06/07 04:12:58;;;;;;;10.40;4.70;;;;;;;21.48;100.00;101467.59;2073473;28;20526;-67
2022/06/07 04:13:59;;;;;;;9.70;5.43;;;;;;;21.47;100.00;101457.56;2073716;28;20172;-67
2022/06/07 04:15:00;;;;;;;9.03;6.10;;;;;;;21.73;100.00;101479.09;2073833;28;20215;-67
2022/06/07 04:16:08;;;;;;;11.37;5.77;;;;;;;21.46;100.00;101445.53;2073611;28;20244;-67
2022/06/07 04:17:10;;;;;;;8.77;4.80;;;;;;;21.77;100.00;101496.59;2073473;28;20283;-68
2022/06/07 04:18:11;;;;;;;7.60;4.60;;;;;;;21.71;100.00;101473.16;2073157;28;20468;-67
2022/06/07 04:19:12;;;;;;;9.80;4.53;;;;;;;21.28;100.00;101408.31;2073734;28;20423;-67
2022/06/07 04:20:12;;;;;;;9.87;4.53;;;;;;;21.85;100.00;101475.16;2073612;28;20417;-66
2022/06/07 04:21:13;;;;;;;9.37;4.43;;;;;;;22.80;100.00;101483.69;2073672;28;20212;-68
2022/06/07 04:22:14;;;;;;;8.80;4.80;;;;;;;23.05;100.00;101472.41;2073865;28;20182;-67
2022/06/07 04:23:18;;;;;;;9.07;3.87;;;;;;;23.26;100.00;101473.94;2073613;28;20620;-67
2022/06/07 04:24:19;;;;;;;10.60;4.27;;;;;;;23.15;100.00;101445.53;2073751;28;20651;-67
2022/06/07 04:25:19;;;;;;;9.40;4.23;;;;;;;23.25;100.00;101461.06;2073660;28;20854;-67
2022/06/07 04:26:23;;;;;;;9.90;4.20;;;;;;;23.32;100.00;101459.84;2073694;28;20722;-67
2022/06/07 04:27:24;;;;;;;13.00;4.77;;;;;;;23.35;100.00;101450.34;2073658;28;20186;-67
2022/06/07 04:28:24;;;;;;;8.50;4.30;;;;;;;23.47;100.00;101449.16;2073487;28;20420;-67
2022/06/07 04:29:25;;;;;;;9.43;4.30;;;;;;;23.54;100.00;101452.31;2073638;28;20659;-67
2022/06/07 04:30:26;;;;;;;12.20;4.27;;;;;;;23.45;100.00;101437.59;2073487;28;20647;-67
2022/06/07 04:31:27;;;;;;;11.10;4.20;;;;;;;23.45;100.00;101437.59;2073514;28;20492;-67
2022/06/07 04:32:27;;;;;;;17.07;4.73;;;;;;;23.71;100.00;101460.94;2073607;28;20232;-67
2022/06/07 04:33:29;;;;;;;11.07;5.13;;;;;;;22.75;100.00;101301.50;2073533;28;20486;-67
2022/06/07 04:34:29;;;;;;;16.03;4.87;;;;;;;23.80;100.00;101457.94;2073967;28;20197;-67
2022/06/07 04:35:30;;;;;;;15.27;4.50;;;;;;;23.03;100.00;101435.38;2073378;28;20507;-67
2022/06/07 04:36:30;;;;;;;14.10;4.40;;;;;;;22.66;100.00;101462.72;2074013;28;20214;-67
2022/06/07 04:37:31;;;;;;;7.30;3.20;;;;;;;22.50;100.00;101470.97;2064490;28;20182;-67
2022/06/07 04:38:31;;;;;;;9.37;3.07;;;;;;;22.41;100.00;101476.75;2064800;28;20178;-67
2022/06/07 04:39:32;;;;;;;6.93;3.80;;;;;;;22.40;100.00;101463.88;2073894;28;20182;-67
2022/06/07 04:40:33;;;;;;;7.33;3.07;;;;;;;22.35;100.00;101465.38;2073262;28;20178;-67
2022/06/07 04:41:33;;;;;;;5.63;3.10;;;;;;;22.36;100.00;101466.16;2073686;28;20484;-67
2022/06/07 04:42:34;;;;;;;5.90;3.10;;;;;;;22.40;100.00;101466.69;2073351;28;20189;-67
2022/06/07 04:43:34;;;;;;;5.33;3.17;;;;;;;23.13;100.00;101459.38;2072313;28;20190;-67
2022/06/07 04:44:35;;;;;;;3.93;2.90;;;;;;;23.26;100.00;101456.97;2066870;28;20218;-67
2022/06/07 04:45:37;;;;;;;5.63;3.20;;;;;;;23.30;100.00;101442.59;2065739;28;20193;-67
2022/06/07 04:46:37;;;;;;;7.70;2.97;;;;;;;22.58;100.00;101460.81;2073112;28;20186;-67
2022/06/07 04:47:38;;;;;;;5.47;3.20;;;;;;;22.90;100.00;101432.16;2073158;28;20181;-67
2022/06/07 04:48:38;;;;;;;5.20;3.20;;;;;;;22.64;100.00;101465.25;2073227;28;20177;-67
2022/06/07 04:49:39;;;;;;;4.43;3.27;;;;;;;22.54;100.00;101468.72;2073670;28;20205;-67
2022/06/07 04:50:39;;;;;;;8.50;3.30;;;;;;;22.36;100.00;101435.09;2072865;28;20264;-67
2022/06/07 04:51:40;;;;;;;7.50;3.23;;;;;;;22.71;100.00;101467.66;2063901;28;20289;-67